createdAt,value
2017-11-19T00:02:10.118Z,7.30
2017-11-19T00:04:39.533Z,8.23
2017-11-19T00:07:08.938Z,7.67
2017-11-19T00:09:38.369Z,8.13
2017-11-19T00:12:07.765Z,7.80
2017-11-19T00:14:37.150Z,8.40
2017-11-19T00:17:06.641Z,9.47
2017-11-19T00:19:36.012Z,8.47
2017-11-19T00:22:05.407Z,8.97
2017-11-19T00:24:34.786Z,8.93
2017-11-19T00:27:04.239Z,9.73
2017-11-19T00:29:34.249Z,9.27
2017-11-19T00:32:03.701Z,9.20
2017-11-19T00:34:33.097Z,9.63
2017-11-19T00:37:02.515Z,9.80
2017-11-19T00:39:31.900Z,9.20
2017-11-19T00:42:01.306Z,11.87
2017-11-19T00:44:30.696Z,10.90
2017-11-19T00:47:00.096Z,10.30
2017-11-19T00:49:29.498Z,11.17
2017-11-19T00:51:58.927Z,10.53
2017-11-19T00:54:28.294Z,11.57
2017-11-19T00:56:57.679Z,9.77
2017-11-19T00:59:27.076Z,9.60
2017-11-19T01:01:56.522Z,11.53
2017-11-19T01:04:25.935Z,11.67
2017-11-19T01:06:55.343Z,11.37
2017-11-19T01:09:24.758Z,11.60
2017-11-19T01:11:54.139Z,11.37
2017-11-19T01:14:23.538Z,11.20
2017-11-19T01:16:52.930Z,10.37
2017-11-19T01:19:22.733Z,11.03
2017-11-19T01:21:52.108Z,11.60
2017-11-19T01:24:21.516Z,10.77
2017-11-19T01:26:50.912Z,11.27
2017-11-19T01:29:20.310Z,10.83
2017-11-19T01:31:49.701Z,11.00
2017-11-19T01:34:19.120Z,11.27
2017-11-19T01:36:48.507Z,10.17
2017-11-19T01:39:17.921Z,10.73
2017-11-19T01:41:47.291Z,10.93
2017-11-19T01:44:16.689Z,10.33
2017-11-19T01:46:46.076Z,11.70
2017-11-19T01:49:15.475Z,10.70
2017-11-19T01:51:44.856Z,11.10
2017-11-19T01:54:14.264Z,10.97
2017-11-19T01:56:43.640Z,11.00
2017-11-19T01:59:13.044Z,11.10
2017-11-19T02:01:42.433Z,12.00
2017-11-19T02:04:11.841Z,10.90
2017-11-19T02:06:41.221Z,11.53
2017-11-19T02:09:10.628Z,10.50
2017-11-19T02:11:40.006Z,11.90
2017-11-19T02:14:09.430Z,10.67
2017-11-19T02:16:38.799Z,10.30
2017-11-19T02:19:08.194Z,9.73
2017-11-19T02:21:37.620Z,10.80
2017-11-19T02:24:07.064Z,11.07
2017-11-19T02:26:36.601Z,10.53
2017-11-19T02:29:06.097Z,10.63
2017-11-19T02:31:35.816Z,10.00
2017-11-19T02:34:05.601Z,10.20
2017-11-19T02:36:34.984Z,9.60
2017-11-19T02:39:04.407Z,10.33
2017-11-19T02:41:33.792Z,10.50
2017-11-19T02:44:03.160Z,10.90
2017-11-19T02:46:32.570Z,9.80
2017-11-19T02:49:01.937Z,9.07
2017-11-19T02:51:31.342Z,8.97
2017-11-19T02:54:00.758Z,9.40
2017-11-19T02:56:30.162Z,10.30
2017-11-19T02:58:59.565Z,8.33
2017-11-19T03:01:28.979Z,9.30
2017-11-19T03:03:58.372Z,8.53
2017-11-19T03:06:27.806Z,8.00
2017-11-19T03:08:57.178Z,8.70
2017-11-19T03:11:26.677Z,7.70
2017-11-19T03:13:56.057Z,8.27
2017-11-19T03:16:25.449Z,6.30
2017-11-19T03:18:54.840Z,7.20
2017-11-19T03:21:24.246Z,7.00
2017-11-19T03:23:53.621Z,7.20
2017-11-19T03:26:23.024Z,7.60
2017-11-19T03:28:52.417Z,8.00
2017-11-19T03:31:21.814Z,6.83
2017-11-19T03:33:51.202Z,6.80
2017-11-19T03:36:20.609Z,8.43
2017-11-19T03:38:49.997Z,6.83
2017-11-19T03:41:19.398Z,6.10
2017-11-19T03:43:48.796Z,7.40
2017-11-19T03:46:18.222Z,6.80
2017-11-19T03:48:47.614Z,7.30
2017-11-19T03:51:17.006Z,7.03
2017-11-19T03:53:46.375Z,7.57
2017-11-19T03:56:15.796Z,7.27
2017-11-19T03:58:45.632Z,6.40
2017-11-19T04:01:15.022Z,6.40
2017-11-19T04:03:44.383Z,6.43
2017-11-19T04:06:13.784Z,7.80
2017-11-19T04:08:43.149Z,6.80
2017-11-19T04:11:12.558Z,6.87
2017-11-19T04:13:41.934Z,6.20
2017-11-19T04:16:11.349Z,6.90
2017-11-19T04:18:40.712Z,6.53
2017-11-19T04:21:10.119Z,7.67
2017-11-19T04:23:39.493Z,6.23
2017-11-19T04:26:08.959Z,6.93
2017-11-19T04:28:38.338Z,6.97
2017-11-19T04:31:07.710Z,6.83
2017-11-19T04:33:37.117Z,6.50
2017-11-19T04:36:06.497Z,7.10
2017-11-19T04:38:35.916Z,7.13
2017-11-19T04:41:05.302Z,6.77
2017-11-19T04:43:34.693Z,7.50
2017-11-19T04:46:04.071Z,5.60
2017-11-19T04:48:33.475Z,6.03
2017-11-19T04:51:02.889Z,6.23
2017-11-19T04:53:32.299Z,5.80
2017-11-19T04:56:01.693Z,5.97
2017-11-19T04:58:31.092Z,6.07
2017-11-19T05:01:00.467Z,6.13
2017-11-19T05:03:29.884Z,7.00
2017-11-19T05:05:59.248Z,5.63
2017-11-19T05:08:28.641Z,5.90
2017-11-19T05:10:58.010Z,6.20
2017-11-19T05:13:27.406Z,6.40
2017-11-19T05:15:56.790Z,5.70
2017-11-19T05:18:26.173Z,5.60
2017-11-19T05:20:55.539Z,6.10
2017-11-19T05:23:24.940Z,6.17
2017-11-19T05:25:54.330Z,5.23
2017-11-19T05:28:23.773Z,5.03
2017-11-19T05:30:53.154Z,5.73
2017-11-19T05:33:22.563Z,5.37
2017-11-19T05:35:52.014Z,5.93
2017-11-19T05:38:21.437Z,6.13
2017-11-19T05:40:50.824Z,5.90
2017-11-19T05:43:20.221Z,6.10
2017-11-19T05:45:49.589Z,4.87
2017-11-19T05:48:19.006Z,6.33
2017-11-19T05:50:48.799Z,5.93
2017-11-19T05:53:18.190Z,5.07
2017-11-19T05:55:47.548Z,6.00
2017-11-19T05:58:16.940Z,5.37
2017-11-19T06:00:46.328Z,5.63
2017-11-19T06:03:15.725Z,5.80
2017-11-19T06:05:45.097Z,5.00
2017-11-19T06:08:14.502Z,6.23
2017-11-19T06:10:43.873Z,5.03
2017-11-19T06:13:13.272Z,4.97
2017-11-19T06:15:42.655Z,6.67
2017-11-19T06:18:12.040Z,4.70
2017-11-19T06:20:41.436Z,5.90
2017-11-19T06:23:10.817Z,4.70
2017-11-19T06:25:40.226Z,5.67
2017-11-19T06:28:09.596Z,5.53
2017-11-19T06:30:38.987Z,4.20
2017-11-19T06:33:10.019Z,7.13
2017-11-19T06:35:39.424Z,3.60
2017-11-19T06:38:08.806Z,4.43
2017-11-19T06:40:38.194Z,4.40
2017-11-19T06:43:07.565Z,5.03
2017-11-19T06:45:36.962Z,3.50
2017-11-19T06:48:06.337Z,4.00
2017-11-19T06:50:35.792Z,4.13
2017-11-19T06:53:05.203Z,4.40
2017-11-19T06:55:34.618Z,4.13
2017-11-19T06:58:03.988Z,4.00
2017-11-19T07:00:33.368Z,3.53
2017-11-19T07:03:02.794Z,4.03
2017-11-19T07:05:32.192Z,4.20
2017-11-19T07:08:01.578Z,3.57
2017-11-19T07:10:31.016Z,3.33
2017-11-19T07:13:00.389Z,2.93
2017-11-19T07:15:29.794Z,3.50
2017-11-19T07:17:59.148Z,3.27
2017-11-19T07:20:28.537Z,3.23
2017-11-19T07:22:57.917Z,3.17
2017-11-19T07:25:27.335Z,3.40
2017-11-19T07:27:56.989Z,3.10
2017-11-19T07:30:26.405Z,2.90
2017-11-19T07:32:56.094Z,2.90
2017-11-19T07:35:25.469Z,2.70
2017-11-19T07:37:55.013Z,3.70
2017-11-19T07:40:24.521Z,3.10
2017-11-19T07:42:53.898Z,3.57
2017-11-19T07:45:23.318Z,3.37
2017-11-19T07:47:52.696Z,3.53
2017-11-19T07:50:22.117Z,3.50
2017-11-19T07:52:51.501Z,4.00
2017-11-19T07:55:20.889Z,3.13
2017-11-19T07:57:50.266Z,3.77
2017-11-19T08:00:19.657Z,4.20
2017-11-19T08:02:49.024Z,3.43
2017-11-19T08:05:18.440Z,3.00
2017-11-19T08:07:47.808Z,3.13
2017-11-19T08:10:17.188Z,3.10
2017-11-19T08:12:46.600Z,3.10
2017-11-19T08:15:15.977Z,3.97
2017-11-19T08:17:45.390Z,2.90
2017-11-19T08:20:14.771Z,3.50
2017-11-19T08:22:44.166Z,3.30
2017-11-19T08:25:13.543Z,3.50
2017-11-19T08:27:42.934Z,4.10
2017-11-19T08:30:12.735Z,3.03
2017-11-19T08:32:42.143Z,3.67
2017-11-19T08:35:11.529Z,2.90
2017-11-19T08:37:40.924Z,2.93
2017-11-19T08:40:10.638Z,2.93
2017-11-19T08:42:40.240Z,3.30
2017-11-19T08:45:09.612Z,2.80
2017-11-19T08:47:39.023Z,2.90
2017-11-19T08:50:08.390Z,2.50
2017-11-19T08:52:37.790Z,2.30
2017-11-19T08:55:07.154Z,2.33
2017-11-19T08:57:36.574Z,2.80
2017-11-19T09:00:05.949Z,2.60
2017-11-19T09:02:41.026Z,2.57
2017-11-19T09:05:10.389Z,2.70
2017-11-19T09:07:39.789Z,2.70
2017-11-19T09:10:09.177Z,2.93
2017-11-19T09:12:38.591Z,2.10
2017-11-19T09:15:07.974Z,2.50
2017-11-19T09:17:37.401Z,2.43
2017-11-19T09:20:06.768Z,2.80
2017-11-19T09:22:36.147Z,2.90
2017-11-19T09:25:05.537Z,2.40
2017-11-19T09:27:34.946Z,2.95
2017-11-19T09:30:04.335Z,3.30
2017-11-19T09:32:33.739Z,2.57
2017-11-19T09:35:03.116Z,3.00
2017-11-19T09:37:32.513Z,2.20
2017-11-19T09:40:01.908Z,2.50
2017-11-19T09:42:31.335Z,2.80
2017-11-19T09:45:00.829Z,2.93
2017-11-19T09:47:30.254Z,3.70
2017-11-19T09:49:59.612Z,3.70
2017-11-19T09:52:29.005Z,3.20
2017-11-19T09:54:58.383Z,2.43
2017-11-19T09:57:27.800Z,2.50
2017-11-19T09:59:57.222Z,2.63
2017-11-19T10:02:26.633Z,4.20
2017-11-19T10:04:56.024Z,2.90
2017-11-19T10:07:25.389Z,2.87
2017-11-19T10:09:54.782Z,2.67
2017-11-19T10:12:24.145Z,2.73
2017-11-19T10:14:53.534Z,2.27
2017-11-19T10:17:22.912Z,2.10
2017-11-19T10:19:52.313Z,3.37
2017-11-19T10:22:21.686Z,3.23
2017-11-19T10:24:51.083Z,2.53
2017-11-19T10:27:20.452Z,2.60
2017-11-19T10:29:49.837Z,2.23
2017-11-19T10:32:19.220Z,2.37
2017-11-19T10:34:48.610Z,2.23
2017-11-19T10:37:17.996Z,2.23
2017-11-19T10:39:47.411Z,2.33
2017-11-19T10:42:16.799Z,2.33
2017-11-19T10:44:46.259Z,2.20
2017-11-19T10:47:15.621Z,2.30
2017-11-19T10:49:45.015Z,2.13
2017-11-19T10:52:14.386Z,2.33
2017-11-19T10:54:44.052Z,2.80
2017-11-19T10:57:13.671Z,2.00
2017-11-19T10:59:43.158Z,2.10
2017-11-19T11:02:12.764Z,2.90
2017-11-19T11:04:42.215Z,2.20
2017-11-19T11:07:11.593Z,2.33
2017-11-19T11:09:40.999Z,2.53
2017-11-19T11:12:10.375Z,2.07
2017-11-19T11:14:39.773Z,2.30
2017-11-19T11:17:09.144Z,2.60
2017-11-19T11:19:38.566Z,4.13
2017-11-19T11:22:08.030Z,2.60
2017-11-19T11:24:37.398Z,2.03
2017-11-19T11:27:07.012Z,2.67
2017-11-19T11:29:36.914Z,2.70
2017-11-19T11:32:06.326Z,2.37
2017-11-19T11:34:36.448Z,2.30
2017-11-19T11:37:05.847Z,2.20
2017-11-19T11:39:35.236Z,2.40
2017-11-19T11:42:04.676Z,2.80
2017-11-19T11:44:34.530Z,3.03
2017-11-19T11:47:04.291Z,2.90
2017-11-19T11:49:33.792Z,2.30
2017-11-19T11:52:03.285Z,2.90
2017-11-19T11:54:33.317Z,3.07
2017-11-19T11:57:02.715Z,2.60
2017-11-19T11:59:32.119Z,2.33
2017-11-19T12:02:01.900Z,2.37
2017-11-19T12:04:31.596Z,2.37
2017-11-19T12:07:00.985Z,3.00
2017-11-19T12:09:30.353Z,2.97
2017-11-19T12:11:59.783Z,2.77
2017-11-19T12:14:29.328Z,5.00
2017-11-19T12:16:58.750Z,7.30
2017-11-19T12:19:28.137Z,2.60
2017-11-19T12:21:57.665Z,2.97
2017-11-19T12:24:27.108Z,2.50
2017-11-19T12:26:56.507Z,3.50
2017-11-19T12:29:26.076Z,2.50
2017-11-19T12:31:55.476Z,3.10
2017-11-19T12:34:25.035Z,2.60
2017-11-19T12:36:54.493Z,3.07
2017-11-19T12:39:23.875Z,3.00
2017-11-19T12:41:53.291Z,2.87
2017-11-19T12:44:22.718Z,2.60
2017-11-19T12:46:52.132Z,2.97
2017-11-19T12:49:21.700Z,2.67
2017-11-19T12:51:51.232Z,2.40
2017-11-19T12:54:20.628Z,2.97
2017-11-19T12:56:51.103Z,2.73
2017-11-19T12:59:20.761Z,3.20
2017-11-19T13:01:50.151Z,3.03
2017-11-19T13:04:20.141Z,3.67
2017-11-19T13:06:49.588Z,2.93
2017-11-19T13:09:18.983Z,3.40
2017-11-19T13:11:48.414Z,2.90
2017-11-19T13:14:17.801Z,3.60
2017-11-19T13:16:47.235Z,3.70
2017-11-19T13:19:16.645Z,3.13
2017-11-19T13:21:46.019Z,4.33
2017-11-19T13:24:15.419Z,3.17
2017-11-19T13:26:44.779Z,2.57
2017-11-19T13:29:14.165Z,3.60
2017-11-19T13:31:44.902Z,4.57
2017-11-19T13:34:14.291Z,3.90
2017-11-19T13:36:43.673Z,3.53
2017-11-19T13:39:13.075Z,3.30
2017-11-19T13:41:42.440Z,3.00
2017-11-19T13:44:11.870Z,2.97
2017-11-19T13:46:41.281Z,2.80
2017-11-19T13:49:10.681Z,2.73
2017-11-19T13:51:40.055Z,3.70
2017-11-19T13:54:09.463Z,2.43
2017-11-19T13:56:38.826Z,2.90
2017-11-19T13:59:08.221Z,2.80
2017-11-19T14:01:37.621Z,2.60
2017-11-19T14:04:07.028Z,2.90
2017-11-19T14:06:36.426Z,2.43
2017-11-19T14:09:05.876Z,2.73
2017-11-19T14:11:35.246Z,2.53
2017-11-19T14:14:04.645Z,3.90
2017-11-19T14:16:34.031Z,2.37
2017-11-19T14:19:03.419Z,2.70
2017-11-19T14:21:32.789Z,2.00
2017-11-19T14:24:02.240Z,2.30
2017-11-19T14:26:31.650Z,2.90
2017-11-19T14:29:01.063Z,2.20
2017-11-19T14:31:30.443Z,2.13
2017-11-19T14:33:59.840Z,3.07
2017-11-19T14:36:29.213Z,1.97
2017-11-19T14:38:58.631Z,2.70
2017-11-19T14:41:27.988Z,2.47
2017-11-19T14:43:57.377Z,3.20
2017-11-19T14:46:26.746Z,2.57
2017-11-19T14:48:56.142Z,3.00
2017-11-19T14:51:25.522Z,3.20
2017-11-19T14:53:54.939Z,2.70
2017-11-19T14:56:24.312Z,3.43
2017-11-19T14:58:53.879Z,3.20
2017-11-19T15:01:23.298Z,2.43
2017-11-19T15:03:52.707Z,2.60
2017-11-19T15:06:22.088Z,3.37
2017-11-19T15:08:51.475Z,3.70
2017-11-19T15:11:21.291Z,2.57
2017-11-19T15:13:50.653Z,3.57
2017-11-19T15:16:20.275Z,2.90
2017-11-19T15:18:49.839Z,3.20
2017-11-19T15:21:19.249Z,3.70
2017-11-19T15:23:48.627Z,3.33
2017-11-19T15:26:18.040Z,5.53
2017-11-19T15:28:47.418Z,4.10
2017-11-19T15:31:16.808Z,3.80
2017-11-19T15:33:46.254Z,3.30
2017-11-19T15:36:15.654Z,3.70
2017-11-19T15:38:45.029Z,3.60
2017-11-19T15:41:14.430Z,3.27
2017-11-19T15:43:43.797Z,4.00
2017-11-19T15:46:13.194Z,3.73
2017-11-19T15:48:42.565Z,3.70
2017-11-19T15:51:11.951Z,3.37
2017-11-19T15:53:41.334Z,3.90
2017-11-19T15:56:10.732Z,3.13
2017-11-19T15:58:40.122Z,4.60
2017-11-19T16:01:09.539Z,3.97
2017-11-19T16:03:38.914Z,3.47
2017-11-19T16:06:08.309Z,4.07
2017-11-19T16:08:37.684Z,3.63
2017-11-19T16:11:07.077Z,3.50
2017-11-19T16:13:36.462Z,4.17
2017-11-19T16:16:05.868Z,3.53
2017-11-19T16:18:35.274Z,4.27
2017-11-19T16:21:04.681Z,3.30
2017-11-19T16:23:34.062Z,3.67
2017-11-19T16:26:03.502Z,4.30
2017-11-19T16:28:32.914Z,4.43
2017-11-19T16:31:02.312Z,3.70
2017-11-19T16:33:32.318Z,3.40
2017-11-19T16:36:01.753Z,3.80
2017-11-19T16:38:31.137Z,4.30
2017-11-19T16:41:00.514Z,4.70
2017-11-19T16:43:29.915Z,3.70
2017-11-19T16:45:59.277Z,3.47
2017-11-19T16:48:28.684Z,3.80
2017-11-19T16:50:58.057Z,3.30
2017-11-19T16:53:27.465Z,3.63
2017-11-19T16:55:56.836Z,3.30
2017-11-19T16:58:26.259Z,3.13
2017-11-19T17:00:55.670Z,4.90
2017-11-19T17:03:25.090Z,3.63
2017-11-19T17:05:54.504Z,4.50
2017-11-19T17:08:24.145Z,3.10
2017-11-19T17:10:53.887Z,3.70
2017-11-19T17:13:23.296Z,3.30
2017-11-19T17:15:52.690Z,4.10
2017-11-19T17:18:22.418Z,4.20
2017-11-19T17:20:51.897Z,4.00
2017-11-19T17:23:21.297Z,3.80
2017-11-19T17:25:50.999Z,3.77
2017-11-19T17:28:20.442Z,4.17
2017-11-19T17:30:50.677Z,4.20
2017-11-19T17:33:20.148Z,4.70
2017-11-19T17:36:04.447Z,3.90
2017-11-19T17:38:33.949Z,4.17
2017-11-19T17:41:03.520Z,3.83
2017-11-19T17:43:32.987Z,4.47
2017-11-19T17:46:02.361Z,4.67
2017-11-19T17:48:31.902Z,5.33
2017-11-19T17:51:01.277Z,4.13
2017-11-19T17:53:30.672Z,5.33
2017-11-19T17:56:00.243Z,6.27
2017-11-19T17:58:29.637Z,4.20
2017-11-19T18:00:59.328Z,4.30
2017-11-19T18:03:28.766Z,4.83
2017-11-19T18:05:58.142Z,3.97
2017-11-19T18:08:27.586Z,4.93
2017-11-19T18:10:57.136Z,4.23
2017-11-19T18:13:26.534Z,3.60
2017-11-19T18:15:56.305Z,3.90
2017-11-19T18:18:25.832Z,4.07
2017-11-19T18:20:55.217Z,4.17
2017-11-19T18:23:25.533Z,3.97
2017-11-19T18:25:54.905Z,4.80
2017-11-19T18:28:24.534Z,4.20
2017-11-19T18:30:53.921Z,3.93
2017-11-19T18:33:23.670Z,4.10
2017-11-19T18:35:53.089Z,3.93
2017-11-19T18:38:22.579Z,5.50
2017-11-19T18:40:52.104Z,4.70
2017-11-19T18:43:21.574Z,4.40
2017-11-19T18:45:51.027Z,4.57
2017-11-19T18:48:20.389Z,3.93
2017-11-19T18:50:49.857Z,4.30
2017-11-19T18:53:19.241Z,6.10
2017-11-19T18:55:48.642Z,4.53
2017-11-19T18:58:18.031Z,3.90
2017-11-19T19:00:47.429Z,5.00
2017-11-19T19:03:16.811Z,4.40
2017-11-19T19:05:46.204Z,4.03
2017-11-19T19:08:15.593Z,5.20
2017-11-19T19:10:45.014Z,4.10
2017-11-19T19:13:14.398Z,3.57
2017-11-19T19:15:43.790Z,4.60
2017-11-19T19:18:13.162Z,3.60
2017-11-19T19:20:42.556Z,3.10
2017-11-19T19:23:11.933Z,3.07
2017-11-19T19:25:41.323Z,3.20
2017-11-19T19:28:10.688Z,3.43
2017-11-19T19:30:40.095Z,3.60
2017-11-19T19:33:09.466Z,4.10
2017-11-19T19:35:38.861Z,4.27
2017-11-19T19:38:08.215Z,3.23
2017-11-19T19:40:37.600Z,4.00
2017-11-19T19:43:06.973Z,3.70
2017-11-19T19:45:36.379Z,3.87
2017-11-19T19:48:05.755Z,3.97
2017-11-19T19:50:35.162Z,3.83
2017-11-19T19:53:04.540Z,4.57
2017-11-19T19:55:33.944Z,4.40
2017-11-19T19:58:03.309Z,3.70
2017-11-19T20:00:32.716Z,3.60
2017-11-19T20:03:02.081Z,3.63
2017-11-19T20:05:31.984Z,9.00
2017-11-19T20:08:01.365Z,3.60
2017-11-19T20:10:30.773Z,3.87
2017-11-19T20:13:00.155Z,3.73
2017-11-19T20:15:29.549Z,3.30
2017-11-19T20:17:59.006Z,3.53
2017-11-19T20:20:28.402Z,3.53
2017-11-19T20:22:57.797Z,3.40
2017-11-19T20:25:27.427Z,3.90
2017-11-19T20:27:57.001Z,3.50
2017-11-19T20:30:26.462Z,4.33
2017-11-19T20:32:55.826Z,5.33
2017-11-19T20:35:25.193Z,4.70
2017-11-19T20:37:54.672Z,3.60
2017-11-19T20:40:24.062Z,4.60
2017-11-19T20:42:53.466Z,4.73
2017-11-19T20:45:22.852Z,5.00
2017-11-19T20:47:52.261Z,4.70
2017-11-19T20:50:21.640Z,4.90
2017-11-19T20:52:51.056Z,5.40
2017-11-19T20:55:20.418Z,4.47
2017-11-19T20:57:49.818Z,4.40
2017-11-19T21:00:19.225Z,5.60
2017-11-19T21:02:48.625Z,5.00
2017-11-19T21:05:17.993Z,5.27
2017-11-19T21:07:47.393Z,4.93
2017-11-19T21:10:16.755Z,5.50
2017-11-19T21:12:46.213Z,4.20
2017-11-19T21:15:15.583Z,4.30
2017-11-19T21:17:45.008Z,4.40
2017-11-19T21:20:14.377Z,4.07
2017-11-19T21:22:43.795Z,4.60
2017-11-19T21:25:13.173Z,4.50
2017-11-19T21:27:42.564Z,3.83
2017-11-19T21:30:11.939Z,4.83
2017-11-19T21:32:41.323Z,4.10
2017-11-19T21:35:10.698Z,4.97
2017-11-19T21:37:40.091Z,6.07
2017-11-19T21:40:09.476Z,4.10
2017-11-19T21:42:38.862Z,4.40
2017-11-19T21:45:08.237Z,4.20
2017-11-19T21:47:38.081Z,4.37
2017-11-19T21:50:07.444Z,4.27
2017-11-19T21:52:36.838Z,4.77
2017-11-19T21:55:06.297Z,4.77
2017-11-19T21:57:35.713Z,4.57
2017-11-19T22:00:05.142Z,5.50
2017-11-19T22:02:40.202Z,4.60
2017-11-19T22:05:09.586Z,5.70
2017-11-19T22:07:38.992Z,5.03
2017-11-19T22:10:10.189Z,5.00
2017-11-19T22:12:39.991Z,4.13
2017-11-19T22:15:09.374Z,4.30
2017-11-19T22:17:38.770Z,5.00
2017-11-19T22:20:08.556Z,4.67
2017-11-19T22:22:37.969Z,4.03
2017-11-19T22:25:07.342Z,5.30
2017-11-19T22:27:36.821Z,4.20
2017-11-19T22:30:07.312Z,3.90
2017-11-19T22:32:36.733Z,4.77
2017-11-19T22:35:06.170Z,4.17
2017-11-19T22:37:35.576Z,3.83
2017-11-19T22:40:05.063Z,3.90
2017-11-19T22:42:34.485Z,5.00
2017-11-19T22:45:03.867Z,4.30
2017-11-19T22:47:33.677Z,4.20
2017-11-19T22:50:03.045Z,5.07
2017-11-19T22:52:32.481Z,4.40
2017-11-19T22:55:01.850Z,4.67
2017-11-19T22:57:31.213Z,4.10
2017-11-19T23:00:00.603Z,4.33
2017-11-19T23:02:29.988Z,5.20
2017-11-19T23:04:59.369Z,4.20
2017-11-19T23:07:28.753Z,4.77
2017-11-19T23:09:58.137Z,4.30
2017-11-19T23:12:27.510Z,5.83
2017-11-19T23:14:56.917Z,4.97
2017-11-19T23:17:26.293Z,4.30
2017-11-19T23:19:55.692Z,4.37
2017-11-19T23:22:25.085Z,4.90
2017-11-19T23:24:54.511Z,5.07
2017-11-19T23:27:23.877Z,5.40
2017-11-19T23:29:53.273Z,4.60
2017-11-19T23:32:22.670Z,5.60
2017-11-19T23:34:52.060Z,3.67
2017-11-19T23:37:21.442Z,3.97
2017-11-19T23:39:50.876Z,4.37
2017-11-19T23:42:21.087Z,3.70
2017-11-19T23:44:50.497Z,4.10
2017-11-19T23:47:19.865Z,3.87
2017-11-19T23:49:49.332Z,4.27
2017-11-19T23:52:18.692Z,3.93
2017-11-19T23:54:48.131Z,3.83
2017-11-19T23:57:17.500Z,4.87
2017-11-19T23:59:46.892Z,3.47
